Chipolbrok Star — VRGU3 — position and weather

sailwx.info

Track history (hours):
 
Tides and Currents Weather Stations Pressure Air Temp Water Temp Dewpoint Dewpoint Depression Visibility Wind Speed Wind Dir Waves Ship Positions

Chipolbrok Star

Last reported at 2017-Nov-04 17:30 UTC. Time now 2017-Nov-24 15:09 UTC.
Position N 31°05' E 123°41'.
Warning: this ship's position is 19 days out of date.

Length 200 m; draft 9.5 m.

Type: Cargo ship. MMSI: 477748600.

Date/timePositionNaut miles runAvg speedWind from/ knotsBaromVisibWave heightAir tempDewpointWater temp
2017-Nov-04 17:30N 31°05' E 123°41'1213.5
2017-Nov-04 16:36N 31°06' E 123°27'313.0
2017-Nov-04 16:24N 31°06' E 123°24'612.6
2017-Nov-04 15:54N 31°06' E 123°17'612.4
2017-Nov-04 15:26N 31°07' E 123°10'2710.9
2017-Nov-04 12:55N 31°05' E 122°38'6 9.6
2017-Nov-04 12:20N 31°05' E 122°31'3 8.7
2017-Nov-04 11:56N 31°05' E 122°27'3 6.2
2017-Nov-04 11:30N 31°06' E 122°24'510.2
2017-Nov-04 11:00N 31°06' E 122°18'713.1
2017-Nov-04 10:30N 31°10' E 122°12'714.4
2017-Nov-04 10:01N 31°14' E 122°05'714.3
2017-Nov-04 09:30N 31°15' E 121°57'814.9
2017-Nov-04 09:00N 31°17' E 121°48'713.4
2017-Nov-04 08:30N 31°20' E 121°41'611.4
2017-Nov-04 08:00N 31°23' E 121°36'510.8
2017-Nov-04 07:30N 31°25' E 121°30'510.7
2017-Nov-04 07:00N 31°29' E 121°26'611.9
2017-Nov-04 06:30N 31°33' E 121°20'712.9
2017-Nov-04 06:00N 31°38' E 121°15'611.7
2017-Nov-04 05:30N 31°41' E 121°10'611.1
2017-Nov-04 05:00N 31°45' E 121°05'15 0.7
2017-Nov-03 08:27N 31°55' E 120°53'611.0
2017-Nov-03 07:57N 31°50' E 120°54'5 9.9
2017-Nov-03 07:27N 31°47' E 120°59'511.1
2017-Nov-03 07:00N 31°46' E 121°04'611.1
2017-Nov-03 06:30N 31°42' E 121°09'5 9.2
2017-Nov-03 06:01N 31°39' E 121°13'1 1.9
2017-Nov-03 05:25N 31°39' E 121°15'0 0.1
2017-Nov-03 04:49N 31°39' E 121°15'0 0.2
2017-Nov-03 04:28N 31°39' E 121°15'0 0.0
2017-Nov-03 03:58N 31°39' E 121°15'0 0.1
2017-Nov-03 03:22N 31°39' E 121°15'0 0.0
2017-Nov-03 02:52N 31°39' E 121°15'0 0.0
2017-Nov-03 02:28N 31°39' E 121°15'0 0.4
2017-Nov-03 01:58N 31°39' E 121°15'0 0.2
2017-Nov-03 01:25N 31°39' E 121°15'0 0.0
2017-Nov-03 00:55N 31°39' E 121°15'0 0.0
2017-Nov-03 00:25N 31°39' E 121°15'0 0.0
2017-Nov-02 23:58N 31°39' E 121°15'0 0.1
2017-Nov-02 23:28N 31°39' E 121°15'0 0.1
2017-Nov-02 22:55N 31°39' E 121°15'0 0.1
2017-Nov-02 22:25N 31°39' E 121°15'0 0.0
2017-Nov-02 21:58N 31°39' E 121°15'0 0.1
2017-Nov-02 21:22N 31°39' E 121°15'0 0.0
2017-Nov-02 20:49N 31°39' E 121°15'0 0.0
2017-Nov-02 20:28N 31°39' E 121°15'0 0.0
2017-Nov-02 19:58N 31°39' E 121°15'0 0.0
2017-Nov-02 19:28N 31°39' E 121°15'0 0.1
2017-Nov-02 18:58N 31°39' E 121°15'0 0.1
2017-Nov-02 18:28N 31°39' E 121°15'0 0.3
2017-Nov-02 17:55N 31°39' E 121°15'0 0.1
2017-Nov-02 17:28N 31°39' E 121°15'0 0.0
2017-Nov-02 16:58N 31°39' E 121°15'0 0.0
2017-Nov-02 16:25N 31°39' E 121°15'0 0.0
2017-Nov-02 15:55N 31°39' E 121°15'0 0.0
2017-Nov-02 15:25N 31°39' E 121°15'0 0.0
2017-Nov-02 14:58N 31°39' E 121°15'0 0.0
2017-Nov-02 14:22N 31°39' E 121°15'0 0.1
2017-Nov-02 13:55N 31°39' E 121°15'0 0.5
2017-Nov-02 13:28N 31°39' E 121°15'0 0.0
2017-Nov-02 12:58N 31°39' E 121°15'0 0.0
2017-Nov-02 12:28N 31°39' E 121°15'0 0.0
2017-Nov-02 11:58N 31°39' E 121°15'0 0.0
2017-Nov-02 11:28N 31°39' E 121°15'0 0.0
2017-Nov-02 10:58N 31°39' E 121°15'0 0.0
2017-Nov-02 10:28N 31°39' E 121°15'0 0.0
2017-Nov-02 09:52N 31°39' E 121°15'0 0.0
2017-Nov-02 09:28N 31°39' E 121°15'0 0.0
2017-Nov-02 08:52N 31°39' E 121°15'0 0.0
2017-Nov-02 08:28N 31°39' E 121°15'0 0.0
2017-Nov-02 07:58N 31°39' E 121°15'0 0.0
2017-Nov-02 07:28N 31°39' E 121°15'0 0.1
2017-Nov-02 06:58N 31°39' E 121°15'0 0.3
2017-Nov-02 06:28N 31°39' E 121°15'0 0.3
2017-Nov-02 05:58N 31°39' E 121°15'0 0.0
2017-Nov-02 05:25N 31°39' E 121°15'0 0.0
2017-Nov-02 04:58N 31°39' E 121°15'0 0.0
2017-Nov-02 04:25N 31°39' E 121°15'0 0.0
2017-Nov-02 03:58N 31°39' E 121°15'0 0.0
2017-Nov-02 03:28N 31°39' E 121°15'0 0.0
2017-Nov-02 02:58N 31°39' E 121°15'0 0.0
2017-Nov-02 02:28N 31°39' E 121°15'0 0.1
2017-Nov-02 01:55N 31°39' E 121°15'0 0.5
2017-Nov-02 01:28N 31°39' E 121°15'0 0.1
2017-Nov-02 00:58N 31°39' E 121°15'0 0.0
2017-Nov-02 00:28N 31°39' E 121°15'0 0.0
2017-Nov-01 23:58N 31°39' E 121°15'0 0.0
2017-Nov-01 23:28N 31°39' E 121°15'0 0.0
2017-Nov-01 22:58N 31°39' E 121°15'0 0.0
2017-Nov-01 22:28N 31°39' E 121°15'0 0.0
2017-Nov-01 21:58N 31°39' E 121°15'0 0.0
2017-Nov-01 21:25N 31°39' E 121°15'0 0.0
2017-Nov-01 20:55N 31°39' E 121°15'0 0.0
2017-Nov-01 20:25N 31°39' E 121°15'0 0.0
2017-Nov-01 19:58N 31°39' E 121°15'0 0.1
2017-Nov-01 19:28N 31°39' E 121°15'0 0.0
2017-Nov-01 18:55N 31°39' E 121°15'0 0.0
2017-Nov-01 18:28N 31°39' E 121°15'0 0.0
2017-Nov-01 00:42N 31°39' E 121°15'0 0.4
2017-Nov-01 00:12N 31°39' E 121°15'0 0.1
2017-Oct-31 23:20N 31°39' E 121°15'1 2.3
2017-Oct-31 23:01N 31°38' E 121°15'2 3.5
2017-Oct-31 22:26N 31°39' E 121°13'0 0.0
2017-Oct-31 21:59N 31°39' E 121°13'0 0.0
2017-Oct-31 21:29N 31°39' E 121°13'0 0.0
2017-Oct-31 20:59N 31°39' E 121°13'0 0.0
2017-Oct-31 20:26N 31°39' E 121°13'0 0.0
2017-Oct-31 19:59N 31°39' E 121°13'0 0.0
2017-Oct-31 19:26N 31°39' E 121°13'0 0.0
2017-Oct-31 18:50N 31°39' E 121°13'0 0.0
2017-Oct-31 18:29N 31°39' E 121°13'0 0.0
2017-Oct-31 17:56N 31°39' E 121°13'0 0.0
2017-Oct-31 17:26N 31°39' E 121°13'0 0.0
2017-Oct-31 16:56N 31°39' E 121°13'0 0.0
2017-Oct-31 16:20N 31°39' E 121°13'0 0.0
2017-Oct-31 15:59N 31°39' E 121°13'0 0.0
2017-Oct-31 15:29N 31°39' E 121°13'0 0.0
2017-Oct-31 14:59N 31°39' E 121°13'0 0.0
2017-Oct-31 14:14N 31°39' E 121°13'0 0.0
2017-Oct-31 13:53N 31°39' E 121°13'0 0.0
2017-Oct-31 13:23N 31°39' E 121°13'0 0.0
2017-Oct-31 12:53N 31°39' E 121°13'0 0.0
2017-Oct-31 12:29N 31°39' E 121°13'0 0.0
2017-Oct-31 11:53N 31°39' E 121°13'0 0.0
2017-Oct-31 11:23N 31°39' E 121°13'0 0.0
2017-Oct-31 09:20N 31°39' E 121°13'0 0.0
2017-Oct-31 08:59N 31°39' E 121°13'0 0.0
2017-Oct-31 07:50N 31°39' E 121°13'0 0.0
2017-Oct-31 07:17N 31°39' E 121°13'0 0.0
2017-Oct-31 06:59N 31°39' E 121°13'0 0.0
2017-Oct-31 06:17N 31°39' E 121°13'0 0.0
2017-Oct-31 05:56N 31°39' E 121°13'0 0.0
2017-Oct-31 05:26N 31°39' E 121°13'0 0.0
2017-Oct-31 04:41N 31°39' E 121°13'0 0.0
2017-Oct-31 04:29N 31°39' E 121°13'0 0.0
2017-Oct-31 03:59N 31°39' E 121°13'0 0.0
2017-Oct-31 03:26N 31°39' E 121°13'0 0.0
2017-Oct-31 02:23N 31°39' E 121°13'0 0.0
2017-Oct-31 01:50N 31°39' E 121°13'0 0.0
2017-Oct-31 01:23N 31°39' E 121°13'0 0.0
2017-Oct-31 00:50N 31°39' E 121°13'0 0.0
2017-Oct-30 23:47N 31°39' E 121°13'0 0.0
2017-Oct-30 23:23N 31°39' E 121°13'0 0.0
2017-Oct-30 22:59N 31°39' E 121°13'0 0.0
2017-Oct-30 22:29N 31°39' E 121°13'0 0.0
2017-Oct-30 21:59N 31°39' E 121°13'0 0.0
2017-Oct-30 21:26N 31°39' E 121°13'0 0.0
2017-Oct-30 20:59N 31°39' E 121°13'0 0.0
2017-Oct-30 20:29N 31°39' E 121°13'0 0.0
2017-Oct-30 19:44N 31°39' E 121°13'0 0.0
2017-Oct-30 19:26N 31°39' E 121°13'0 0.0
2017-Oct-30 18:26N 31°39' E 121°13'0 0.0
2017-Oct-30 17:56N 31°39' E 121°13'0 0.0
2017-Oct-30 17:29N 31°39' E 121°13'0 0.0
2017-Oct-30 16:59N 31°39' E 121°13'0 0.0
2017-Oct-30 16:29N 31°39' E 121°13'0 0.0
2017-Oct-30 15:59N 31°39' E 121°13'0 0.0
2017-Oct-30 15:17N 31°39' E 121°13'0 0.0
2017-Oct-30 14:50N 31°39' E 121°13'0 0.0
2017-Oct-30 13:05N 31°39' E 121°13'0 0.0
2017-Oct-30 12:53N 31°39' E 121°13'0 0.0
2017-Oct-30 12:26N 31°39' E 121°13'0 0.0
2017-Oct-30 11:59N 31°39' E 121°13'0 0.0
2017-Oct-30 11:29N 31°39' E 121°13'0 0.0
2017-Oct-30 10:53N 31°39' E 121°13'0 0.0
2017-Oct-30 09:50N 31°39' E 121°13'0 0.0
2017-Oct-30 09:29N 31°39' E 121°13'0 0.0
2017-Oct-30 08:59N 31°39' E 121°13'0 0.0
2017-Oct-30 08:29N 31°39' E 121°13'0 0.0
2017-Oct-30 07:50N 31°39' E 121°13'0 0.0
2017-Oct-30 07:29N 31°39' E 121°13'0 0.0
2017-Oct-30 06:50N 31°39' E 121°13'0 0.0
2017-Oct-30 06:29N 31°39' E 121°13'0 0.0
2017-Oct-30 05:56N 31°39' E 121°13'0 0.0
2017-Oct-30 05:20N 31°39' E 121°13'0 0.0
2017-Oct-30 04:56N 31°39' E 121°13'0 0.0
2017-Oct-30 04:23N 31°39' E 121°13'0 0.0
2017-Oct-30 03:59N 31°39' E 121°13'0 0.0
2017-Oct-30 03:23N 31°39' E 121°13'0 0.0
2017-Oct-30 02:50N 31°39' E 121°13'0 0.0
2017-Oct-30 02:29N 31°39' E 121°13'0 0.0
2017-Oct-30 01:59N 31°39' E 121°13'0 0.0
2017-Oct-30 01:17N 31°39' E 121°13'0 0.0
2017-Oct-30 00:59N 31°39' E 121°13'0 0.0
2017-Oct-30 00:26N 31°39' E 121°13'0 0.0
2017-Oct-29 23:56N 31°39' E 121°13'0 0.0
2017-Oct-29 23:29N 31°39' E 121°13'0 0.0
2017-Oct-29 22:32N 31°39' E 121°13'0 0.0
2017-Oct-29 22:02N 31°39' E 121°13'0 0.0
2017-Oct-29 21:56N 31°39' E 121°13'0 0.0
2017-Oct-29 21:29N 31°39' E 121°13'0 0.0
2017-Oct-29 20:59N 31°39' E 121°13'0 0.0
2017-Oct-29 20:26N 31°39' E 121°13'0 0.0
2017-Oct-29 19:56N 31°39' E 121°13'0 0.0
2017-Oct-29 19:29N 31°39' E 121°13'0 0.0
2017-Oct-29 18:47N 31°39' E 121°13'0 0.0
2017-Oct-29 18:26N 31°39' E 121°13'0 0.0
2017-Oct-29 17:59N 31°39' E 121°13'0 0.0
2017-Oct-29 17:29N 31°39' E 121°13'0 0.0
2017-Oct-29 16:59N 31°39' E 121°13'0 0.0
2017-Oct-29 16:29N 31°39' E 121°13'0 0.0
2017-Oct-29 15:59N 31°39' E 121°13'0 0.0
2017-Oct-29 15:29N 31°39' E 121°13'0 0.0
2017-Oct-29 14:44N 31°39' E 121°13'0 0.0
2017-Oct-29 14:23N 31°39' E 121°13'0 0.0
2017-Oct-29 13:56N 31°39' E 121°13'0 0.0
2017-Oct-29 13:29N 31°39' E 121°13'0 0.0
2017-Oct-29 12:59N 31°39' E 121°13'0 0.0
2017-Oct-29 12:29N 31°39' E 121°13'0 0.0
2017-Oct-29 11:59N 31°39' E 121°13'0 0.0
2017-Oct-29 11:29N 31°39' E 121°13'0 0.0
2017-Oct-29 10:56N 31°39' E 121°13'0 0.0
2017-Oct-29 10:26N 31°39' E 121°13'0 0.0
2017-Oct-29 09:59N 31°39' E 121°13'0 0.0
2017-Oct-29 09:14N 31°39' E 121°13'0 0.0
2017-Oct-29 08:59N 31°39' E 121°13'0 0.0
2017-Oct-29 08:23N 31°39' E 121°13'0 0.0
2017-Oct-29 07:59N 31°39' E 121°13'0 0.0
2017-Oct-29 07:29N 31°39' E 121°13'0 0.0
2017-Oct-29 06:56N 31°39' E 121°13'0 0.0
2017-Oct-29 06:26N 31°39' E 121°13'0 0.0
2017-Oct-29 05:59N 31°39' E 121°13'0 0.0
2017-Oct-29 05:29N 31°39' E 121°13'0 0.0
2017-Oct-29 04:56N 31°39' E 121°13'0 0.0
2017-Oct-29 04:29N 31°39' E 121°13'0 0.0
2017-Oct-29 03:50N 31°39' E 121°13'0 0.0
2017-Oct-28 18:59N 31°39' E 121°13'0 0.0
2017-Oct-28 18:29N 31°39' E 121°13'0 0.0
2017-Oct-28 17:17N 31°39' E 121°13'0 0.0
2017-Oct-28 14:29N 31°39' E 121°13'0 0.0
2017-Oct-28 13:59N 31°39' E 121°13'0 0.0
2017-Oct-28 13:29N 31°39' E 121°13'0 0.0
2017-Oct-28 12:38N 31°39' E 121°13'0 0.0
2017-Oct-28 11:44N 31°39' E 121°13'0 0.0
2017-Oct-28 11:17N 31°39' E 121°13'0 0.0
2017-Oct-28 10:56N 31°39' E 121°13'0 0.0
2017-Oct-28 10:29N 31°39' E 121°13'0 0.0
2017-Oct-28 09:59N 31°39' E 121°13'0 0.0
2017-Oct-28 09:20N 31°39' E 121°13'0 0.0
2017-Oct-28 08:41N 31°39' E 121°13'0 0.0
2017-Oct-28 08:29N 31°39' E 121°13'0 0.0
2017-Oct-28 07:59N 31°39' E 121°13'0 0.0
2017-Oct-28 07:11N 31°39' E 121°13'0 0.0
2017-Oct-28 06:53N 31°39' E 121°13'0 0.5
2017-Oct-28 06:31N 31°39' E 121°13'2 4.8
2017-Oct-28 06:00N 31°39' E 121°15'0 0.6
2017-Oct-28 05:28N 31°38' E 121°16'0 0.0
2017-Oct-28 04:55N 31°38' E 121°16'0 0.0
2017-Oct-28 04:22N 31°38' E 121°16'0 0.1
2017-Oct-28 03:58N 31°38' E 121°16'0 0.0
2017-Oct-28 03:16N 31°38' E 121°16'0 0.0
2017-Oct-28 02:58N 31°38' E 121°16'0 0.0
2017-Oct-28 02:28N 31°38' E 121°16'0 0.1
2017-Oct-28 01:58N 31°38' E 121°16'0 0.0
2017-Oct-28 01:28N 31°38' E 121°16'1 3.2
2017-Oct-28 01:01N 31°37' E 121°17'5 9.6
2017-Oct-28 00:31N 31°33' E 121°20'5 9.8
2017-Oct-28 00:01N 31°31' E 121°25'611.4
2017-Oct-27 23:31N 31°26' E 121°29'4 7.0
2017-Oct-27 23:01N 31°24' E 121°33'5 9.2
2017-Oct-27 22:31N 31°22' E 121°37'510.7
2017-Oct-27 22:00N 31°20' E 121°43'510.1
2017-Oct-27 21:31N 31°18' E 121°48'5 9.8
2017-Oct-27 21:00N 31°16' E 121°54'510.0
2017-Oct-27 20:30N 31°15' E 121°59'510.1
2017-Oct-27 19:59N 31°14' E 122°05'5 9.3
2017-Oct-27 19:30N 31°11' E 122°10'5 9.9
2017-Oct-27 19:00N 31°09' E 122°14'5 9.5
2017-Oct-27 18:31N 31°06' E 122°19'4 7.7
2017-Oct-27 18:01N 31°06' E 122°24'4 6.9
2017-Oct-27 17:30N 31°07' E 122°28'5 6.8
2017-Oct-27 16:42N 31°07' E 122°34'2 6.9
2017-Oct-27 16:25N 31°07' E 122°36'3 7.0
2017-Oct-27 16:00N 31°06' E 122°39'4 7.2
2017-Oct-27 15:26N 31°06' E 122°44'6 7.2
2017-Oct-27 14:34N 31°06' E 122°51'0 1.3
2017-Oct-27 14:29N 31°06' E 122°52'1 1.1
2017-Oct-27 13:53N 31°07' E 122°52'  
Track history (hours):
 
Tides and Currents Weather Stations Pressure Air Temp Water Temp Dewpoint Dewpoint Depression Visibility Wind Speed Wind Dir Waves Ship Positions

Chipolbrok Star

Last reported at 2017-Nov-04 17:30 UTC. Time now 2017-Nov-24 15:09 UTC.
Position N 31°05' E 123°41'.
Warning: this ship's position is 19 days out of date.

Length 200 m; draft 9.5 m.

Type: Cargo ship. MMSI: 477748600.

Date/timePositionNaut miles runAvg speedWind from/ knotsBaromVisibWave heightAir tempDewpointWater temp
2017-Nov-04 17:30N 31°05' E 123°41'1213.5
2017-Nov-04 16:36N 31°06' E 123°27'313.0
2017-Nov-04 16:24N 31°06' E 123°24'612.6
2017-Nov-04 15:54N 31°06' E 123°17'612.4
2017-Nov-04 15:26N 31°07' E 123°10'2710.9
2017-Nov-04 12:55N 31°05' E 122°38'6 9.6
2017-Nov-04 12:20N 31°05' E 122°31'3 8.7
2017-Nov-04 11:56N 31°05' E 122°27'3 6.2
2017-Nov-04 11:30N 31°06' E 122°24'510.2
2017-Nov-04 11:00N 31°06' E 122°18'713.1
2017-Nov-04 10:30N 31°10' E 122°12'714.4
2017-Nov-04 10:01N 31°14' E 122°05'714.3
2017-Nov-04 09:30N 31°15' E 121°57'814.9
2017-Nov-04 09:00N 31°17' E 121°48'713.4
2017-Nov-04 08:30N 31°20' E 121°41'611.4
2017-Nov-04 08:00N 31°23' E 121°36'510.8
2017-Nov-04 07:30N 31°25' E 121°30'510.7
2017-Nov-04 07:00N 31°29' E 121°26'611.9
2017-Nov-04 06:30N 31°33' E 121°20'712.9
2017-Nov-04 06:00N 31°38' E 121°15'611.7
2017-Nov-04 05:30N 31°41' E 121°10'611.1
2017-Nov-04 05:00N 31°45' E 121°05'15 0.7
2017-Nov-03 08:27N 31°55' E 120°53'611.0
2017-Nov-03 07:57N 31°50' E 120°54'5 9.9
2017-Nov-03 07:27N 31°47' E 120°59'511.1
2017-Nov-03 07:00N 31°46' E 121°04'611.1
2017-Nov-03 06:30N 31°42' E 121°09'5 9.2
2017-Nov-03 06:01N 31°39' E 121°13'1 1.9
2017-Nov-03 05:25N 31°39' E 121°15'0 0.1
2017-Nov-03 04:49N 31°39' E 121°15'0 0.2
2017-Nov-03 04:28N 31°39' E 121°15'0 0.0
2017-Nov-03 03:58N 31°39' E 121°15'0 0.1
2017-Nov-03 03:22N 31°39' E 121°15'0 0.0
2017-Nov-03 02:52N 31°39' E 121°15'0 0.0
2017-Nov-03 02:28N 31°39' E 121°15'0 0.4
2017-Nov-03 01:58N 31°39' E 121°15'0 0.2
2017-Nov-03 01:25N 31°39' E 121°15'0 0.0
2017-Nov-03 00:55N 31°39' E 121°15'0 0.0
2017-Nov-03 00:25N 31°39' E 121°15'0 0.0
2017-Nov-02 23:58N 31°39' E 121°15'0 0.1
2017-Nov-02 23:28N 31°39' E 121°15'0 0.1
2017-Nov-02 22:55N 31°39' E 121°15'0 0.1
2017-Nov-02 22:25N 31°39' E 121°15'0 0.0
2017-Nov-02 21:58N 31°39' E 121°15'0 0.1
2017-Nov-02 21:22N 31°39' E 121°15'0 0.0
2017-Nov-02 20:49N 31°39' E 121°15'0 0.0
2017-Nov-02 20:28N 31°39' E 121°15'0 0.0
2017-Nov-02 19:58N 31°39' E 121°15'0 0.0
2017-Nov-02 19:28N 31°39' E 121°15'0 0.1
2017-Nov-02 18:58N 31°39' E 121°15'0 0.1
2017-Nov-02 18:28N 31°39' E 121°15'0 0.3
2017-Nov-02 17:55N 31°39' E 121°15'0 0.1
2017-Nov-02 17:28N 31°39' E 121°15'0 0.0
2017-Nov-02 16:58N 31°39' E 121°15'0 0.0
2017-Nov-02 16:25N 31°39' E 121°15'0 0.0
2017-Nov-02 15:55N 31°39' E 121°15'0 0.0
2017-Nov-02 15:25N 31°39' E 121°15'0 0.0
2017-Nov-02 14:58N 31°39' E 121°15'0 0.0
2017-Nov-02 14:22N 31°39' E 121°15'0 0.1
2017-Nov-02 13:55N 31°39' E 121°15'0 0.5
2017-Nov-02 13:28N 31°39' E 121°15'0 0.0
2017-Nov-02 12:58N 31°39' E 121°15'0 0.0
2017-Nov-02 12:28N 31°39' E 121°15'0 0.0
2017-Nov-02 11:58N 31°39' E 121°15'0 0.0
2017-Nov-02 11:28N 31°39' E 121°15'0 0.0
2017-Nov-02 10:58N 31°39' E 121°15'0 0.0
2017-Nov-02 10:28N 31°39' E 121°15'0 0.0
2017-Nov-02 09:52N 31°39' E 121°15'0 0.0
2017-Nov-02 09:28N 31°39' E 121°15'0 0.0
2017-Nov-02 08:52N 31°39' E 121°15'0 0.0
2017-Nov-02 08:28N 31°39' E 121°15'0 0.0
2017-Nov-02 07:58N 31°39' E 121°15'0 0.0
2017-Nov-02 07:28N 31°39' E 121°15'0 0.1
2017-Nov-02 06:58N 31°39' E 121°15'0 0.3
2017-Nov-02 06:28N 31°39' E 121°15'0 0.3
2017-Nov-02 05:58N 31°39' E 121°15'0 0.0
2017-Nov-02 05:25N 31°39' E 121°15'0 0.0
2017-Nov-02 04:58N 31°39' E 121°15'0 0.0
2017-Nov-02 04:25N 31°39' E 121°15'0 0.0
2017-Nov-02 03:58N 31°39' E 121°15'0 0.0
2017-Nov-02 03:28N 31°39' E 121°15'0 0.0
2017-Nov-02 02:58N 31°39' E 121°15'0 0.0
2017-Nov-02 02:28N 31°39' E 121°15'0 0.1
2017-Nov-02 01:55N 31°39' E 121°15'0 0.5
2017-Nov-02 01:28N 31°39' E 121°15'0 0.1
2017-Nov-02 00:58N 31°39' E 121°15'0 0.0
2017-Nov-02 00:28N 31°39' E 121°15'0 0.0
2017-Nov-01 23:58N 31°39' E 121°15'0 0.0
2017-Nov-01 23:28N 31°39' E 121°15'0 0.0
2017-Nov-01 22:58N 31°39' E 121°15'0 0.0
2017-Nov-01 22:28N 31°39' E 121°15'0 0.0
2017-Nov-01 21:58N 31°39' E 121°15'0 0.0
2017-Nov-01 21:25N 31°39' E 121°15'0 0.0
2017-Nov-01 20:55N 31°39' E 121°15'0 0.0
2017-Nov-01 20:25N 31°39' E 121°15'0 0.0
2017-Nov-01 19:58N 31°39' E 121°15'0 0.1
2017-Nov-01 19:28N 31°39' E 121°15'0 0.0
2017-Nov-01 18:55N 31°39' E 121°15'0 0.0
2017-Nov-01 18:28N 31°39' E 121°15'0 0.0
2017-Nov-01 00:42N 31°39' E 121°15'0 0.4
2017-Nov-01 00:12N 31°39' E 121°15'0 0.1
2017-Oct-31 23:20N 31°39' E 121°15'1 2.3
2017-Oct-31 23:01N 31°38' E 121°15'2 3.5
2017-Oct-31 22:26N 31°39' E 121°13'0 0.0
2017-Oct-31 21:59N 31°39' E 121°13'0 0.0
2017-Oct-31 21:29N 31°39' E 121°13'0 0.0
2017-Oct-31 20:59N 31°39' E 121°13'0 0.0
2017-Oct-31 20:26N 31°39' E 121°13'0 0.0
2017-Oct-31 19:59N 31°39' E 121°13'0 0.0
2017-Oct-31 19:26N 31°39' E 121°13'0 0.0
2017-Oct-31 18:50N 31°39' E 121°13'0 0.0
2017-Oct-31 18:29N 31°39' E 121°13'0 0.0
2017-Oct-31 17:56N 31°39' E 121°13'0 0.0
2017-Oct-31 17:26N 31°39' E 121°13'0 0.0
2017-Oct-31 16:56N 31°39' E 121°13'0 0.0
2017-Oct-31 16:20N 31°39' E 121°13'0 0.0
2017-Oct-31 15:59N 31°39' E 121°13'0 0.0
2017-Oct-31 15:29N 31°39' E 121°13'0 0.0
2017-Oct-31 14:59N 31°39' E 121°13'0 0.0
2017-Oct-31 14:14N 31°39' E 121°13'0 0.0
2017-Oct-31 13:53N 31°39' E 121°13'0 0.0
2017-Oct-31 13:23N 31°39' E 121°13'0 0.0
2017-Oct-31 12:53N 31°39' E 121°13'0 0.0
2017-Oct-31 12:29N 31°39' E 121°13'0 0.0
2017-Oct-31 11:53N 31°39' E 121°13'0 0.0
2017-Oct-31 11:23N 31°39' E 121°13'0 0.0
2017-Oct-31 09:20N 31°39' E 121°13'0 0.0
2017-Oct-31 08:59N 31°39' E 121°13'0 0.0
2017-Oct-31 07:50N 31°39' E 121°13'0 0.0
2017-Oct-31 07:17N 31°39' E 121°13'0 0.0
2017-Oct-31 06:59N 31°39' E 121°13'0 0.0
2017-Oct-31 06:17N 31°39' E 121°13'0 0.0
2017-Oct-31 05:56N 31°39' E 121°13'0 0.0
2017-Oct-31 05:26N 31°39' E 121°13'0 0.0
2017-Oct-31 04:41N 31°39' E 121°13'0 0.0
2017-Oct-31 04:29N 31°39' E 121°13'0 0.0
2017-Oct-31 03:59N 31°39' E 121°13'0 0.0
2017-Oct-31 03:26N 31°39' E 121°13'0 0.0
2017-Oct-31 02:23N 31°39' E 121°13'0 0.0
2017-Oct-31 01:50N 31°39' E 121°13'0 0.0
2017-Oct-31 01:23N 31°39' E 121°13'0 0.0
2017-Oct-31 00:50N 31°39' E 121°13'0 0.0
2017-Oct-30 23:47N 31°39' E 121°13'0 0.0
2017-Oct-30 23:23N 31°39' E 121°13'0 0.0
2017-Oct-30 22:59N 31°39' E 121°13'0 0.0
2017-Oct-30 22:29N 31°39' E 121°13'0 0.0
2017-Oct-30 21:59N 31°39' E 121°13'0 0.0
2017-Oct-30 21:26N 31°39' E 121°13'0 0.0
2017-Oct-30 20:59N 31°39' E 121°13'0 0.0
2017-Oct-30 20:29N 31°39' E 121°13'0 0.0
2017-Oct-30 19:44N 31°39' E 121°13'0 0.0
2017-Oct-30 19:26N 31°39' E 121°13'0 0.0
2017-Oct-30 18:26N 31°39' E 121°13'0 0.0
2017-Oct-30 17:56N 31°39' E 121°13'0 0.0
2017-Oct-30 17:29N 31°39' E 121°13'0 0.0
2017-Oct-30 16:59N 31°39' E 121°13'0 0.0
2017-Oct-30 16:29N 31°39' E 121°13'0 0.0
2017-Oct-30 15:59N 31°39' E 121°13'0 0.0
2017-Oct-30 15:17N 31°39' E 121°13'0 0.0
2017-Oct-30 14:50N 31°39' E 121°13'0 0.0
2017-Oct-30 13:05N 31°39' E 121°13'0 0.0
2017-Oct-30 12:53N 31°39' E 121°13'0 0.0
2017-Oct-30 12:26N 31°39' E 121°13'0 0.0
2017-Oct-30 11:59N 31°39' E 121°13'0 0.0
2017-Oct-30 11:29N 31°39' E 121°13'0 0.0
2017-Oct-30 10:53N 31°39' E 121°13'0 0.0
2017-Oct-30 09:50N 31°39' E 121°13'0 0.0
2017-Oct-30 09:29N 31°39' E 121°13'0 0.0
2017-Oct-30 08:59N 31°39' E 121°13'0 0.0
2017-Oct-30 08:29N 31°39' E 121°13'0 0.0
2017-Oct-30 07:50N 31°39' E 121°13'0 0.0
2017-Oct-30 07:29N 31°39' E 121°13'0 0.0
2017-Oct-30 06:50N 31°39' E 121°13'0 0.0
2017-Oct-30 06:29N 31°39' E 121°13'0 0.0
2017-Oct-30 05:56N 31°39' E 121°13'0 0.0
2017-Oct-30 05:20N 31°39' E 121°13'0 0.0
2017-Oct-30 04:56N 31°39' E 121°13'0 0.0
2017-Oct-30 04:23N 31°39' E 121°13'0 0.0
2017-Oct-30 03:59N 31°39' E 121°13'0 0.0
2017-Oct-30 03:23N 31°39' E 121°13'0 0.0
2017-Oct-30 02:50N 31°39' E 121°13'0 0.0
2017-Oct-30 02:29N 31°39' E 121°13'0 0.0
2017-Oct-30 01:59N 31°39' E 121°13'0 0.0
2017-Oct-30 01:17N 31°39' E 121°13'0 0.0
2017-Oct-30 00:59N 31°39' E 121°13'0 0.0
2017-Oct-30 00:26N 31°39' E 121°13'0 0.0
2017-Oct-29 23:56N 31°39' E 121°13'0 0.0
2017-Oct-29 23:29N 31°39' E 121°13'0 0.0
2017-Oct-29 22:32N 31°39' E 121°13'0 0.0
2017-Oct-29 22:02N 31°39' E 121°13'0 0.0
2017-Oct-29 21:56N 31°39' E 121°13'0 0.0
2017-Oct-29 21:29N 31°39' E 121°13'0 0.0
2017-Oct-29 20:59N 31°39' E 121°13'0 0.0
2017-Oct-29 20:26N 31°39' E 121°13'0 0.0
2017-Oct-29 19:56N 31°39' E 121°13'0 0.0
2017-Oct-29 19:29N 31°39' E 121°13'0 0.0
2017-Oct-29 18:47N 31°39' E 121°13'0 0.0
2017-Oct-29 18:26N 31°39' E 121°13'0 0.0
2017-Oct-29 17:59N 31°39' E 121°13'0 0.0
2017-Oct-29 17:29N 31°39' E 121°13'0 0.0
2017-Oct-29 16:59N 31°39' E 121°13'0 0.0
2017-Oct-29 16:29N 31°39' E 121°13'0 0.0
2017-Oct-29 15:59N 31°39' E 121°13'0 0.0
2017-Oct-29 15:29N 31°39' E 121°13'0 0.0
2017-Oct-29 14:44N 31°39' E 121°13'0 0.0
2017-Oct-29 14:23N 31°39' E 121°13'0 0.0
2017-Oct-29 13:56N 31°39' E 121°13'0 0.0
2017-Oct-29 13:29N 31°39' E 121°13'0 0.0
2017-Oct-29 12:59N 31°39' E 121°13'0 0.0
2017-Oct-29 12:29N 31°39' E 121°13'0 0.0
2017-Oct-29 11:59N 31°39' E 121°13'0 0.0
2017-Oct-29 11:29N 31°39' E 121°13'0 0.0
2017-Oct-29 10:56N 31°39' E 121°13'0 0.0
2017-Oct-29 10:26N 31°39' E 121°13'0 0.0
2017-Oct-29 09:59N 31°39' E 121°13'0 0.0
2017-Oct-29 09:14N 31°39' E 121°13'0 0.0
2017-Oct-29 08:59N 31°39' E 121°13'0 0.0
2017-Oct-29 08:23N 31°39' E 121°13'0 0.0
2017-Oct-29 07:59N 31°39' E 121°13'0 0.0
2017-Oct-29 07:29N 31°39' E 121°13'0 0.0
2017-Oct-29 06:56N 31°39' E 121°13'0 0.0
2017-Oct-29 06:26N 31°39' E 121°13'0 0.0
2017-Oct-29 05:59N 31°39' E 121°13'0 0.0
2017-Oct-29 05:29N 31°39' E 121°13'0 0.0
2017-Oct-29 04:56N 31°39' E 121°13'0 0.0
2017-Oct-29 04:29N 31°39' E 121°13'0 0.0
2017-Oct-29 03:50N 31°39' E 121°13'0 0.0
2017-Oct-28 18:59N 31°39' E 121°13'0 0.0
2017-Oct-28 18:29N 31°39' E 121°13'0 0.0
2017-Oct-28 17:17N 31°39' E 121°13'0 0.0
2017-Oct-28 14:29N 31°39' E 121°13'0 0.0
2017-Oct-28 13:59N 31°39' E 121°13'0 0.0
2017-Oct-28 13:29N 31°39' E 121°13'0 0.0
2017-Oct-28 12:38N 31°39' E 121°13'0 0.0
2017-Oct-28 11:44N 31°39' E 121°13'0 0.0
2017-Oct-28 11:17N 31°39' E 121°13'0 0.0
2017-Oct-28 10:56N 31°39' E 121°13'0 0.0
2017-Oct-28 10:29N 31°39' E 121°13'0 0.0
2017-Oct-28 09:59N 31°39' E 121°13'0 0.0
2017-Oct-28 09:20N 31°39' E 121°13'0 0.0
2017-Oct-28 08:41N 31°39' E 121°13'0 0.0
2017-Oct-28 08:29N 31°39' E 121°13'0 0.0
2017-Oct-28 07:59N 31°39' E 121°13'0 0.0
2017-Oct-28 07:11N 31°39' E 121°13'0 0.0
2017-Oct-28 06:53N 31°39' E 121°13'0 0.5
2017-Oct-28 06:31N 31°39' E 121°13'2 4.8
2017-Oct-28 06:00N 31°39' E 121°15'0 0.6
2017-Oct-28 05:28N 31°38' E 121°16'0 0.0
2017-Oct-28 04:55N 31°38' E 121°16'0 0.0
2017-Oct-28 04:22N 31°38' E 121°16'0 0.1
2017-Oct-28 03:58N 31°38' E 121°16'0 0.0
2017-Oct-28 03:16N 31°38' E 121°16'0 0.0
2017-Oct-28 02:58N 31°38' E 121°16'0 0.0
2017-Oct-28 02:28N 31°38' E 121°16'0 0.1
2017-Oct-28 01:58N 31°38' E 121°16'0 0.0
2017-Oct-28 01:28N 31°38' E 121°16'1 3.2
2017-Oct-28 01:01N 31°37' E 121°17'5 9.6
2017-Oct-28 00:31N 31°33' E 121°20'5 9.8
2017-Oct-28 00:01N 31°31' E 121°25'611.4
2017-Oct-27 23:31N 31°26' E 121°29'4 7.0
2017-Oct-27 23:01N 31°24' E 121°33'5 9.2
2017-Oct-27 22:31N 31°22' E 121°37'510.7
2017-Oct-27 22:00N 31°20' E 121°43'510.1
2017-Oct-27 21:31N 31°18' E 121°48'5 9.8
2017-Oct-27 21:00N 31°16' E 121°54'510.0
2017-Oct-27 20:30N 31°15' E 121°59'510.1
2017-Oct-27 19:59N 31°14' E 122°05'5 9.3
2017-Oct-27 19:30N 31°11' E 122°10'5 9.9
2017-Oct-27 19:00N 31°09' E 122°14'5 9.5
2017-Oct-27 18:31N 31°06' E 122°19'4 7.7
2017-Oct-27 18:01N 31°06' E 122°24'4 6.9
2017-Oct-27 17:30N 31°07' E 122°28'5 6.8
2017-Oct-27 16:42N 31°07' E 122°34'2 6.9
2017-Oct-27 16:25N 31°07' E 122°36'3 7.0
2017-Oct-27 16:00N 31°06' E 122°39'4 7.2
2017-Oct-27 15:26N 31°06' E 122°44'6 7.2
2017-Oct-27 14:34N 31°06' E 122°51'0 1.3
2017-Oct-27 14:29N 31°06' E 122°52'1 1.1
2017-Oct-27 13:53N 31°07' E 122°52'  

Dump ship's entire track history